createdAt,value
2022-10-18T00:00:02.038Z,446.83
2022-10-18T00:00:12.040Z,446.82
2022-10-18T00:00:22.039Z,446.82
2022-10-18T00:00:32.037Z,446.79
2022-10-18T00:00:42.040Z,446.80
2022-10-18T00:00:52.040Z,446.78
2022-10-18T00:01:02.027Z,446.81
2022-10-18T00:01:12.045Z,446.79
2022-10-18T00:01:22.042Z,446.72
2022-10-18T00:01:32.046Z,446.75
2022-10-18T00:01:42.090Z,446.77
2022-10-18T00:01:52.099Z,446.83
2022-10-18T00:02:02.137Z,446.84
2022-10-18T00:02:12.105Z,446.86
2022-10-18T00:02:22.081Z,446.84
2022-10-18T00:02:32.102Z,446.82
2022-10-18T00:02:42.037Z,446.79
2022-10-18T00:02:52.053Z,446.78
2022-10-18T00:03:02.057Z,446.73
2022-10-18T00:03:12.041Z,446.74
2022-10-18T00:03:22.056Z,446.81
2022-10-18T00:03:32.197Z,446.77
2022-10-18T00:03:52.057Z,446.77
2022-10-18T00:04:02.060Z,446.77
2022-10-18T00:04:12.054Z,446.77
2022-10-18T00:04:22.069Z,446.81
2022-10-18T00:04:32.066Z,446.85
2022-10-18T00:04:42.062Z,446.90
2022-10-18T00:04:52.065Z,446.90
2022-10-18T00:05:02.064Z,446.89
2022-10-18T00:05:12.067Z,446.87
2022-10-18T00:05:22.069Z,446.86
2022-10-18T00:05:32.066Z,446.83
2022-10-18T00:05:42.064Z,446.86
2022-10-18T00:05:52.059Z,446.86
2022-10-18T00:06:02.068Z,446.88
2022-10-18T00:06:12.070Z,446.89
2022-10-18T00:06:22.054Z,446.90
2022-10-18T00:06:32.070Z,446.88
2022-10-18T00:06:43.583Z,446.86
2022-10-18T00:06:52.059Z,446.82
2022-10-18T00:07:02.072Z,446.85
2022-10-18T00:07:12.072Z,446.81
2022-10-18T00:07:22.072Z,446.77
2022-10-18T00:07:32.413Z,446.77
2022-10-18T00:07:42.061Z,446.79
2022-10-18T00:07:52.081Z,446.81
2022-10-18T00:08:02.066Z,446.81
2022-10-18T00:08:12.078Z,446.81
2022-10-18T00:08:22.063Z,446.81
2022-10-18T00:08:32.080Z,446.81
2022-10-18T00:08:42.082Z,446.74
2022-10-18T00:08:52.084Z,446.72
2022-10-18T00:09:02.083Z,446.76
2022-10-18T00:09:12.067Z,446.74
2022-10-18T00:09:22.089Z,446.76
2022-10-18T00:09:32.083Z,446.79
2022-10-18T00:09:42.083Z,446.90
2022-10-18T00:09:52.084Z,446.91
2022-10-18T00:10:02.085Z,446.95
2022-10-18T00:10:12.091Z,446.98
2022-10-18T00:10:22.088Z,446.97
2022-10-18T00:10:32.088Z,446.98
2022-10-18T00:10:42.093Z,447.03
2022-10-18T00:10:52.090Z,447.05
2022-10-18T00:11:02.089Z,447.11
2022-10-18T00:11:12.091Z,447.10
2022-10-18T00:11:22.092Z,447.11
2022-10-18T00:11:32.077Z,447.10
2022-10-18T00:11:42.092Z,447.13
2022-10-18T00:11:52.094Z,447.15
2022-10-18T00:12:02.094Z,447.16
2022-10-18T00:12:12.096Z,447.12
2022-10-18T00:12:22.095Z,447.09
2022-10-18T00:12:32.096Z,447.11
2022-10-18T00:12:42.167Z,447.09
2022-10-18T00:12:52.085Z,447.09
2022-10-18T00:13:02.101Z,447.07
2022-10-18T00:13:12.101Z,447.13
2022-10-18T00:13:22.102Z,447.18
2022-10-18T00:13:32.102Z,447.21
2022-10-18T00:13:42.104Z,447.27
2022-10-18T00:13:52.104Z,447.26
2022-10-18T00:14:02.105Z,447.24
2022-10-18T00:14:12.110Z,447.23
2022-10-18T00:14:22.106Z,447.24
2022-10-18T00:14:32.104Z,447.24
2022-10-18T00:14:42.095Z,447.27
2022-10-18T00:14:52.092Z,447.26
2022-10-18T00:15:02.108Z,447.28
2022-10-18T00:15:12.117Z,447.33
2022-10-18T00:15:22.111Z,447.40
2022-10-18T00:15:32.114Z,447.43
2022-10-18T00:15:42.116Z,447.39
2022-10-18T00:15:52.115Z,447.42
2022-10-18T00:16:02.121Z,447.44
2022-10-18T00:16:12.122Z,447.49
2022-10-18T00:16:22.118Z,447.48
2022-10-18T00:16:32.123Z,447.49
2022-10-18T00:16:42.128Z,447.53
2022-10-18T00:16:52.122Z,447.56
2022-10-18T00:17:02.122Z,447.54
2022-10-18T00:17:12.133Z,447.58
2022-10-18T00:17:22.123Z,447.62
2022-10-18T00:17:32.422Z,447.59
2022-10-18T00:17:42.191Z,447.60
2022-10-18T00:17:52.110Z,447.60
2022-10-18T00:18:02.125Z,447.57
2022-10-18T00:18:12.129Z,447.59
2022-10-18T00:18:22.129Z,447.56
2022-10-18T00:18:32.134Z,447.55
2022-10-18T00:18:42.127Z,447.53
2022-10-18T00:18:52.128Z,447.53
2022-10-18T00:19:02.131Z,447.53
2022-10-18T00:19:12.130Z,447.57
2022-10-18T00:19:25.838Z,447.55
2022-10-18T00:19:33.141Z,447.63
2022-10-18T00:19:42.135Z,447.62
2022-10-18T00:19:52.134Z,447.62
2022-10-18T00:20:02.136Z,447.63
2022-10-18T00:20:12.136Z,447.66
2022-10-18T00:20:22.136Z,447.59
2022-10-18T00:20:32.137Z,447.58
2022-10-18T00:20:42.140Z,447.55
2022-10-18T00:20:52.139Z,447.56
2022-10-18T00:21:02.143Z,447.51
2022-10-18T00:21:12.145Z,447.47
2022-10-18T00:21:22.141Z,447.42
2022-10-18T00:21:32.187Z,447.45
2022-10-18T00:21:42.170Z,447.40
2022-10-18T00:21:52.145Z,447.38
2022-10-18T00:22:02.144Z,447.38
2022-10-18T00:22:12.145Z,447.45
2022-10-18T00:22:22.145Z,447.43
2022-10-18T00:22:32.360Z,447.46
2022-10-18T00:22:42.154Z,447.46
2022-10-18T00:22:52.149Z,447.48
2022-10-18T00:23:02.149Z,447.41
2022-10-18T00:23:12.150Z,447.45
2022-10-18T00:23:22.151Z,447.46
2022-10-18T00:23:32.149Z,447.51
2022-10-18T00:23:42.140Z,447.55
2022-10-18T00:23:52.153Z,447.55
2022-10-18T00:24:02.155Z,447.59
2022-10-18T00:24:12.154Z,447.55
2022-10-18T00:24:22.156Z,447.56
2022-10-18T00:24:32.156Z,447.56
2022-10-18T00:24:42.159Z,447.60
2022-10-18T00:24:52.156Z,447.69
2022-10-18T00:25:02.169Z,447.68
2022-10-18T00:25:12.162Z,447.70
2022-10-18T00:25:22.159Z,447.65
2022-10-18T00:25:32.160Z,447.66
2022-10-18T00:25:42.160Z,447.68
2022-10-18T00:25:52.160Z,447.66
2022-10-18T00:26:02.161Z,447.62
2022-10-18T00:26:12.161Z,447.64
2022-10-18T00:26:22.164Z,447.64
2022-10-18T00:26:32.164Z,447.65
2022-10-18T00:26:42.169Z,447.64
2022-10-18T00:26:52.164Z,447.52
2022-10-18T00:27:02.170Z,447.51
2022-10-18T00:27:12.173Z,447.49
2022-10-18T00:27:22.167Z,447.47
2022-10-18T00:27:32.173Z,447.48
2022-10-18T00:27:42.169Z,447.44
2022-10-18T00:27:52.170Z,447.40
2022-10-18T00:28:02.175Z,447.40
2022-10-18T00:28:12.172Z,447.48
2022-10-18T00:28:22.170Z,447.42
2022-10-18T00:28:32.214Z,447.39
2022-10-18T00:28:42.239Z,447.40
2022-10-18T00:28:52.229Z,447.36
2022-10-18T00:29:02.241Z,447.35
2022-10-18T00:29:12.174Z,447.37
2022-10-18T00:29:22.178Z,447.35
2022-10-18T00:29:32.177Z,447.33
2022-10-18T00:29:42.179Z,447.31
2022-10-18T00:29:52.180Z,447.27
2022-10-18T00:30:02.179Z,447.26
2022-10-18T00:30:12.182Z,447.23
2022-10-18T00:30:22.180Z,447.23
2022-10-18T00:30:32.182Z,447.21
2022-10-18T00:30:42.219Z,447.22
2022-10-18T00:30:52.187Z,447.21
2022-10-18T00:31:02.184Z,447.23
2022-10-18T00:31:12.177Z,447.21
2022-10-18T00:31:22.170Z,447.23
2022-10-18T00:31:32.206Z,447.17
2022-10-18T00:31:42.190Z,447.15
2022-10-18T00:31:52.187Z,447.13
2022-10-18T00:32:02.188Z,447.13
2022-10-18T00:32:12.209Z,447.11
2022-10-18T00:32:22.190Z,447.12
2022-10-18T00:32:32.506Z,447.07
2022-10-18T00:32:42.188Z,447.03
2022-10-18T00:32:52.190Z,447.09
2022-10-18T00:33:02.190Z,447.06
2022-10-18T00:33:12.190Z,447.07
2022-10-18T00:33:22.194Z,446.99
2022-10-18T00:33:32.193Z,446.96
2022-10-18T00:33:42.195Z,446.94
2022-10-18T00:33:52.195Z,446.92
2022-10-18T00:34:02.195Z,446.98
2022-10-18T00:34:12.192Z,446.98
2022-10-18T00:34:22.195Z,446.89
2022-10-18T00:34:32.198Z,446.88
2022-10-18T00:34:42.198Z,446.82
2022-10-18T00:34:52.198Z,446.79
2022-10-18T00:35:02.200Z,446.77
2022-10-18T00:35:12.204Z,446.72
2022-10-18T00:35:22.203Z,446.71
2022-10-18T00:35:32.199Z,446.71
2022-10-18T00:35:42.203Z,446.71
2022-10-18T00:35:52.201Z,446.81
2022-10-18T00:36:02.203Z,446.80
2022-10-18T00:36:12.205Z,446.81
2022-10-18T00:36:22.213Z,446.79
2022-10-18T00:36:32.210Z,446.77
2022-10-18T00:36:42.210Z,446.79
2022-10-18T00:36:52.209Z,446.73
2022-10-18T00:37:02.210Z,446.83
2022-10-18T00:37:12.210Z,446.84
2022-10-18T00:37:22.212Z,446.87
2022-10-18T00:37:32.210Z,446.90
2022-10-18T00:37:42.211Z,446.91
2022-10-18T00:37:52.215Z,446.97
2022-10-18T00:38:02.212Z,446.97
2022-10-18T00:38:12.198Z,446.98
2022-10-18T00:38:22.215Z,447.02
2022-10-18T00:38:32.220Z,447.05
2022-10-18T00:38:42.216Z,447.05
2022-10-18T00:38:52.218Z,447.06
2022-10-18T00:39:02.223Z,447.08
2022-10-18T00:39:12.205Z,447.06
2022-10-18T00:39:22.211Z,447.06
2022-10-18T00:39:32.218Z,447.08
2022-10-18T00:39:42.307Z,447.10
2022-10-18T00:40:02.226Z,447.07
2022-10-18T00:40:12.225Z,447.04
2022-10-18T00:40:22.221Z,447.03
2022-10-18T00:40:32.221Z,447.06
2022-10-18T00:40:42.223Z,447.07
2022-10-18T00:40:52.225Z,447.10
2022-10-18T00:41:02.226Z,447.10
2022-10-18T00:41:12.227Z,447.13
2022-10-18T00:41:22.232Z,447.19
2022-10-18T00:41:32.228Z,447.17
2022-10-18T00:41:42.235Z,447.17
2022-10-18T00:41:52.228Z,447.15
2022-10-18T00:42:02.231Z,447.12
2022-10-18T00:42:12.243Z,447.14
2022-10-18T00:42:22.218Z,447.12
2022-10-18T00:42:32.497Z,447.19
2022-10-18T00:42:42.234Z,447.16
2022-10-18T00:42:52.235Z,447.13
2022-10-18T00:43:02.224Z,447.15
2022-10-18T00:43:12.237Z,447.14
2022-10-18T00:43:22.226Z,447.12
2022-10-18T00:43:32.226Z,447.14
2022-10-18T00:43:42.226Z,447.12
2022-10-18T00:43:52.242Z,447.18
2022-10-18T00:44:02.243Z,447.14
2022-10-18T00:44:12.234Z,447.14
2022-10-18T00:44:22.246Z,447.13
2022-10-18T00:44:32.247Z,447.11
2022-10-18T00:44:42.247Z,447.04
2022-10-18T00:44:52.247Z,447.04
2022-10-18T00:45:02.248Z,447.06
2022-10-18T00:45:12.252Z,447.01
2022-10-18T00:45:22.235Z,447.07
2022-10-18T00:45:32.254Z,447.05
2022-10-18T00:45:42.254Z,446.99
2022-10-18T00:45:52.277Z,446.98
2022-10-18T00:46:02.251Z,446.94
2022-10-18T00:46:12.252Z,446.92
2022-10-18T00:46:22.254Z,446.89
2022-10-18T00:46:32.253Z,446.89
2022-10-18T00:46:42.253Z,446.82
2022-10-18T00:46:52.253Z,446.77
2022-10-18T00:47:02.255Z,446.69
2022-10-18T00:47:12.256Z,446.59
2022-10-18T00:47:22.255Z,446.57
2022-10-18T00:47:32.257Z,446.51
2022-10-18T00:47:42.257Z,446.51
2022-10-18T00:47:52.258Z,446.51
2022-10-18T00:48:02.260Z,446.49
2022-10-18T00:48:12.262Z,446.47
2022-10-18T00:48:22.263Z,446.48
2022-10-18T00:48:32.262Z,446.48
2022-10-18T00:48:42.286Z,446.47
2022-10-18T00:48:52.264Z,446.44
2022-10-18T00:49:02.265Z,446.41
2022-10-18T00:49:12.269Z,446.38
2022-10-18T00:49:22.266Z,446.41
2022-10-18T00:49:32.266Z,446.31
2022-10-18T00:49:42.272Z,446.28
2022-10-18T00:49:52.270Z,446.27
2022-10-18T00:50:02.269Z,446.34
2022-10-18T00:50:12.277Z,446.33
2022-10-18T00:50:22.270Z,446.32
2022-10-18T00:50:32.271Z,446.28
2022-10-18T00:50:42.274Z,446.22
2022-10-18T00:50:52.275Z,446.20
2022-10-18T00:51:02.277Z,446.18
2022-10-18T00:51:12.278Z,446.16
2022-10-18T00:51:22.278Z,446.17
2022-10-18T00:51:32.265Z,446.16
2022-10-18T00:51:42.279Z,446.18
2022-10-18T00:51:52.278Z,446.14
2022-10-18T00:52:02.284Z,446.20
2022-10-18T00:52:12.282Z,446.18
2022-10-18T00:52:22.280Z,446.18
2022-10-18T00:52:32.610Z,446.18
2022-10-18T00:52:42.280Z,446.16
2022-10-18T00:52:52.284Z,446.17
2022-10-18T00:53:02.286Z,446.16
2022-10-18T00:53:12.285Z,446.12
2022-10-18T00:53:22.285Z,446.09
2022-10-18T00:53:32.285Z,446.11
2022-10-18T00:53:42.285Z,446.06
2022-10-18T00:53:52.287Z,446.07
2022-10-18T00:54:02.297Z,446.06
2022-10-18T00:54:12.286Z,446.05
2022-10-18T00:54:22.337Z,446.07
2022-10-18T00:54:32.293Z,446.07
2022-10-18T00:54:42.295Z,446.06
2022-10-18T00:54:52.294Z,446.07
2022-10-18T00:55:02.296Z,446.10
2022-10-18T00:55:12.322Z,446.09
2022-10-18T00:55:22.307Z,446.10
2022-10-18T00:55:32.307Z,446.18
2022-10-18T00:55:42.300Z,446.19
2022-10-18T00:55:52.302Z,446.12
2022-10-18T00:56:02.305Z,446.20
2022-10-18T00:56:12.307Z,446.23
2022-10-18T00:56:22.305Z,446.24
2022-10-18T00:56:32.312Z,446.28
2022-10-18T00:56:42.307Z,446.35
2022-10-18T00:56:52.306Z,446.35
2022-10-18T00:57:02.307Z,446.40
2022-10-18T00:57:12.309Z,446.42
2022-10-18T00:57:22.313Z,446.45
2022-10-18T00:57:32.313Z,446.44
2022-10-18T00:57:42.358Z,446.45
2022-10-18T00:57:52.312Z,446.49
2022-10-18T00:58:02.316Z,446.50
2022-10-18T00:58:12.313Z,446.46
2022-10-18T00:58:22.314Z,446.50
2022-10-18T00:58:32.315Z,446.49
2022-10-18T00:58:42.318Z,446.47
2022-10-18T00:58:52.314Z,446.52
2022-10-18T00:59:02.315Z,446.55
2022-10-18T00:59:12.318Z,446.55
2022-10-18T00:59:22.320Z,446.63
2022-10-18T00:59:32.319Z,446.66
2022-10-18T00:59:42.317Z,446.65
2022-10-18T00:59:52.320Z,446.66
2022-10-18T01:00:02.324Z,446.70
2022-10-18T01:00:12.323Z,446.69
2022-10-18T01:00:22.321Z,446.73
2022-10-18T01:00:32.324Z,446.76
2022-10-18T01:00:42.306Z,446.76
2022-10-18T01:00:52.322Z,446.77
2022-10-18T01:01:02.325Z,446.78
2022-10-18T01:01:12.430Z,446.70
2022-10-18T01:01:25.861Z,446.69
2022-10-18T01:01:33.368Z,446.68
2022-10-18T01:01:42.376Z,446.72
2022-10-18T01:01:52.390Z,446.73
2022-10-18T01:02:02.393Z,446.81
2022-10-18T01:02:12.363Z,446.82
2022-10-18T01:02:22.339Z,446.85
2022-10-18T01:02:32.701Z,446.88
2022-10-18T01:02:42.333Z,446.92
2022-10-18T01:02:52.342Z,446.98
2022-10-18T01:03:02.335Z,446.97
2022-10-18T01:03:12.337Z,446.98
2022-10-18T01:03:22.377Z,446.96
2022-10-18T01:03:32.338Z,447.01
2022-10-18T01:03:42.341Z,447.03
2022-10-18T01:03:52.351Z,447.04
2022-10-18T01:04:02.340Z,447.02
2022-10-18T01:04:12.332Z,447.01
2022-10-18T01:04:22.339Z,447.03
2022-10-18T01:04:32.346Z,447.06
2022-10-18T01:04:42.330Z,447.03
2022-10-18T01:04:52.343Z,447.03
2022-10-18T01:05:02.346Z,447.01
2022-10-18T01:05:12.352Z,447.01
2022-10-18T01:05:22.348Z,446.99
2022-10-18T01:05:32.348Z,446.98
2022-10-18T01:05:42.351Z,446.97
2022-10-18T01:05:52.352Z,446.95
2022-10-18T01:06:02.347Z,446.90
2022-10-18T01:06:12.349Z,446.91
2022-10-18T01:06:22.352Z,446.92
2022-10-18T01:06:32.352Z,446.94
2022-10-18T01:06:42.358Z,446.93
2022-10-18T01:06:52.372Z,446.88
2022-10-18T01:07:02.368Z,446.82
2022-10-18T01:07:12.362Z,446.82
2022-10-18T01:07:22.356Z,446.80
2022-10-18T01:07:32.783Z,446.79
2022-10-18T01:07:42.369Z,446.76
2022-10-18T01:07:52.360Z,446.75
2022-10-18T01:08:02.376Z,446.73
2022-10-18T01:08:12.361Z,446.71
2022-10-18T01:08:22.364Z,446.66
2022-10-18T01:08:32.367Z,446.65
2022-10-18T01:08:42.364Z,446.64
2022-10-18T01:08:52.363Z,446.61
2022-10-18T01:09:02.363Z,446.58
2022-10-18T01:09:12.365Z,446.62
2022-10-18T01:09:22.364Z,446.59
2022-10-18T01:09:32.365Z,446.60
2022-10-18T01:09:42.367Z,446.62
2022-10-18T01:09:52.369Z,446.61
2022-10-18T01:10:02.368Z,446.62
2022-10-18T01:10:12.379Z,446.57
2022-10-18T01:10:22.370Z,446.56
2022-10-18T01:10:32.370Z,446.56
2022-10-18T01:10:42.374Z,446.55
2022-10-18T01:10:52.372Z,446.53
2022-10-18T01:11:02.372Z,446.52
2022-10-18T01:11:12.374Z,446.55
2022-10-18T01:11:22.375Z,446.57
2022-10-18T01:11:32.383Z,446.60
2022-10-18T01:11:42.379Z,446.63
2022-10-18T01:11:52.379Z,446.65
2022-10-18T01:12:02.381Z,446.59
2022-10-18T01:12:12.383Z,446.63
2022-10-18T01:12:22.382Z,446.67
2022-10-18T01:12:32.369Z,446.67
2022-10-18T01:12:42.387Z,446.68
2022-10-18T01:12:52.387Z,446.70
2022-10-18T01:13:02.387Z,446.78
2022-10-18T01:13:12.386Z,446.83
2022-10-18T01:13:25.587Z,446.87
2022-10-18T01:13:32.387Z,446.86
2022-10-18T01:13:42.391Z,446.87
2022-10-18T01:13:52.391Z,446.91
2022-10-18T01:14:02.398Z,446.92
2022-10-18T01:14:12.396Z,446.93
2022-10-18T01:14:22.377Z,446.91
2022-10-18T01:14:32.377Z,446.93
2022-10-18T01:14:42.394Z,446.98
2022-10-18T01:14:52.402Z,447.00
2022-10-18T01:15:02.382Z,447.01
2022-10-18T01:15:12.407Z,447.01
2022-10-18T01:15:22.400Z,447.03
2022-10-18T01:15:32.396Z,447.04
2022-10-18T01:15:42.397Z,447.05
2022-10-18T01:15:52.465Z,447.13
2022-10-18T01:16:02.403Z,447.12
2022-10-18T01:16:12.400Z,447.12
2022-10-18T01:16:22.406Z,447.12
2022-10-18T01:16:32.399Z,447.22
2022-10-18T01:16:42.404Z,447.23
2022-10-18T01:16:52.399Z,447.25
2022-10-18T01:17:02.402Z,447.24
2022-10-18T01:17:12.403Z,447.19
2022-10-18T01:17:22.400Z,447.17
2022-10-18T01:17:32.765Z,447.23
2022-10-18T01:17:42.404Z,447.21
2022-10-18T01:17:52.443Z,447.19
2022-10-18T01:18:02.410Z,447.14
2022-10-18T01:18:12.406Z,447.21
2022-10-18T01:18:22.405Z,447.19
2022-10-18T01:18:32.407Z,447.18
2022-10-18T01:18:42.413Z,447.17
2022-10-18T01:18:52.419Z,447.18
2022-10-18T01:19:02.412Z,447.16
2022-10-18T01:19:12.397Z,447.14
2022-10-18T01:19:22.398Z,447.13
2022-10-18T01:19:32.417Z,447.10
2022-10-18T01:19:42.416Z,447.10
2022-10-18T01:19:52.420Z,447.03
2022-10-18T01:20:02.418Z,447.00
2022-10-18T01:20:12.431Z,446.99
2022-10-18T01:20:22.417Z,447.03
2022-10-18T01:20:32.417Z,447.02
2022-10-18T01:20:42.420Z,446.96
2022-10-18T01:20:52.417Z,446.94
2022-10-18T01:21:02.421Z,446.92
2022-10-18T01:21:12.423Z,446.88
2022-10-18T01:21:22.420Z,446.85
2022-10-18T01:21:32.421Z,446.83
2022-10-18T01:21:42.423Z,446.81
2022-10-18T01:21:52.423Z,446.79
2022-10-18T01:22:02.426Z,446.80
2022-10-18T01:22:12.425Z,446.78
2022-10-18T01:22:22.426Z,446.79
2022-10-18T01:22:32.427Z,446.78
2022-10-18T01:22:42.428Z,446.77
2022-10-18T01:22:52.430Z,446.77
2022-10-18T01:23:02.416Z,446.77
2022-10-18T01:23:12.437Z,446.77
2022-10-18T01:23:22.432Z,446.79
2022-10-18T01:23:32.432Z,446.79
2022-10-18T01:23:42.434Z,446.79
2022-10-18T01:23:52.434Z,446.81
2022-10-18T01:24:02.436Z,446.84
2022-10-18T01:24:12.445Z,446.79
2022-10-18T01:24:22.437Z,446.82
2022-10-18T01:24:32.437Z,446.84
2022-10-18T01:24:42.439Z,446.84
2022-10-18T01:24:52.517Z,446.89
2022-10-18T01:25:12.454Z,446.97
2022-10-18T01:25:22.442Z,447.02
2022-10-18T01:25:32.443Z,447.04
2022-10-18T01:25:42.444Z,447.07
2022-10-18T01:25:52.446Z,447.15
2022-10-18T01:26:02.431Z,447.17
2022-10-18T01:26:12.445Z,447.18
2022-10-18T01:26:22.446Z,447.20
2022-10-18T01:26:32.434Z,447.21
2022-10-18T01:26:42.448Z,447.23
2022-10-18T01:26:52.452Z,447.16
2022-10-18T01:27:02.453Z,447.21
2022-10-18T01:27:12.449Z,447.24
2022-10-18T01:27:22.451Z,447.31
2022-10-18T01:27:32.681Z,447.35
2022-10-18T01:27:42.484Z,447.37
2022-10-18T01:27:52.453Z,447.38
2022-10-18T01:28:02.456Z,447.43
2022-10-18T01:28:12.458Z,447.45
2022-10-18T01:28:22.458Z,447.47
2022-10-18T01:28:32.491Z,447.50
2022-10-18T01:28:42.506Z,447.47
2022-10-18T01:28:52.554Z,447.49
2022-10-18T01:29:02.563Z,447.58
2022-10-18T01:29:12.460Z,447.56
2022-10-18T01:29:22.461Z,447.57
2022-10-18T01:29:32.460Z,447.59
2022-10-18T01:29:42.462Z,447.61
2022-10-18T01:29:52.463Z,447.62
2022-10-18T01:30:02.464Z,447.64
2022-10-18T01:30:12.494Z,447.65
2022-10-18T01:30:22.466Z,447.69
2022-10-18T01:30:32.467Z,447.71
2022-10-18T01:30:42.471Z,447.73
2022-10-18T01:30:52.468Z,447.71
2022-10-18T01:31:02.468Z,447.73
2022-10-18T01:31:12.471Z,447.75
2022-10-18T01:31:22.474Z,447.77
2022-10-18T01:31:32.475Z,447.82
2022-10-18T01:31:42.474Z,447.81
2022-10-18T01:31:55.292Z,447.83
2022-10-18T01:32:03.484Z,447.81
2022-10-18T01:32:12.477Z,447.85
2022-10-18T01:32:22.480Z,447.80
2022-10-18T01:32:32.480Z,447.78
2022-10-18T01:32:42.483Z,447.81
2022-10-18T01:32:52.480Z,447.82
2022-10-18T01:33:02.483Z,447.84
2022-10-18T01:33:12.482Z,447.85
2022-10-18T01:33:22.482Z,447.89
2022-10-18T01:33:32.485Z,447.86
2022-10-18T01:33:42.514Z,447.82
2022-10-18T01:33:52.583Z,447.80
2022-10-18T01:34:12.487Z,447.83
2022-10-18T01:34:22.472Z,447.83
2022-10-18T01:34:32.491Z,447.82
2022-10-18T01:34:42.487Z,447.86
2022-10-18T01:34:52.490Z,447.87
2022-10-18T01:35:02.474Z,447.85
2022-10-18T01:35:12.500Z,447.82
2022-10-18T01:35:22.486Z,447.82
2022-10-18T01:35:32.490Z,447.79
2022-10-18T01:35:42.479Z,447.81
2022-10-18T01:35:52.498Z,447.80
2022-10-18T01:36:02.479Z,447.79
2022-10-18T01:36:12.493Z,447.83
2022-10-18T01:36:22.480Z,447.82
2022-10-18T01:36:32.499Z,447.85
2022-10-18T01:36:42.495Z,447.83
2022-10-18T01:36:52.495Z,447.78
2022-10-18T01:37:02.498Z,447.77
2022-10-18T01:37:12.484Z,447.79
2022-10-18T01:37:22.502Z,447.84
2022-10-18T01:37:32.793Z,447.87
2022-10-18T01:37:42.502Z,447.89
2022-10-18T01:37:52.529Z,447.94
2022-10-18T01:38:02.503Z,447.96
2022-10-18T01:38:12.502Z,447.98
2022-10-18T01:38:22.506Z,447.97
2022-10-18T01:38:32.522Z,448.00
2022-10-18T01:38:42.505Z,448.07
2022-10-18T01:38:52.509Z,448.10
2022-10-18T01:39:02.512Z,448.14
2022-10-18T01:39:12.509Z,448.15
2022-10-18T01:39:22.512Z,448.17
2022-10-18T01:39:32.525Z,448.18
2022-10-18T01:39:42.510Z,448.22
2022-10-18T01:39:52.509Z,448.17
2022-10-18T01:40:02.513Z,448.20
2022-10-18T01:40:12.526Z,448.22
2022-10-18T01:40:22.511Z,448.21
2022-10-18T01:40:32.514Z,448.28
2022-10-18T01:40:42.512Z,448.26
2022-10-18T01:40:52.514Z,448.29
2022-10-18T01:41:02.518Z,448.35
2022-10-18T01:41:15.619Z,448.35
2022-10-18T01:41:22.516Z,448.37
2022-10-18T01:41:32.517Z,448.41
2022-10-18T01:41:42.519Z,448.37
2022-10-18T01:41:52.521Z,448.36
2022-10-18T01:42:02.520Z,448.33
2022-10-18T01:42:12.521Z,448.39
2022-10-18T01:42:22.523Z,448.34
2022-10-18T01:42:32.523Z,448.37
2022-10-18T01:42:42.525Z,448.38
2022-10-18T01:42:52.586Z,448.33
2022-10-18T01:43:02.602Z,448.32
2022-10-18T01:43:12.530Z,448.32
2022-10-18T01:43:22.529Z,448.28
2022-10-18T01:43:32.531Z,448.34
2022-10-18T01:43:42.532Z,448.34
2022-10-18T01:43:52.531Z,448.28
2022-10-18T01:44:02.537Z,448.29
2022-10-18T01:44:12.534Z,448.25
2022-10-18T01:44:22.535Z,448.23
2022-10-18T01:44:32.522Z,448.29
2022-10-18T01:44:42.538Z,448.27
2022-10-18T01:44:52.539Z,448.24
2022-10-18T01:45:02.543Z,448.24
2022-10-18T01:45:12.552Z,448.23
2022-10-18T01:45:22.540Z,448.22
2022-10-18T01:45:32.561Z,448.22
2022-10-18T01:45:42.545Z,448.19
2022-10-18T01:45:52.545Z,448.18
2022-10-18T01:46:02.543Z,448.18
2022-10-18T01:46:12.546Z,448.15
2022-10-18T01:46:22.548Z,448.17
2022-10-18T01:46:32.549Z,448.16
2022-10-18T01:46:42.549Z,448.12
2022-10-18T01:46:52.553Z,448.13
2022-10-18T01:47:02.552Z,448.12
2022-10-18T01:47:12.549Z,448.10
2022-10-18T01:47:22.572Z,448.03
2022-10-18T01:47:32.765Z,448.05
2022-10-18T01:47:42.556Z,448.03
2022-10-18T01:47:52.552Z,448.02
2022-10-18T01:48:02.553Z,448.01
2022-10-18T01:48:12.554Z,448.00
2022-10-18T01:48:22.554Z,447.97
2022-10-18T01:48:32.567Z,447.95
2022-10-18T01:48:42.563Z,447.96
2022-10-18T01:48:52.561Z,447.98
2022-10-18T01:49:02.557Z,447.98
2022-10-18T01:49:12.564Z,448.03
2022-10-18T01:49:22.561Z,448.04
2022-10-18T01:49:32.561Z,448.04
2022-10-18T01:49:42.564Z,448.06
2022-10-18T01:49:52.565Z,448.08
2022-10-18T01:50:02.571Z,448.08
2022-10-18T01:50:12.582Z,448.09
2022-10-18T01:50:22.570Z,448.13
2022-10-18T01:50:32.568Z,448.09
2022-10-18T01:50:42.569Z,448.10
2022-10-18T01:50:52.573Z,448.10
2022-10-18T01:51:02.574Z,448.11
2022-10-18T01:51:12.559Z,448.13
2022-10-18T01:51:22.579Z,448.20
2022-10-18T01:51:32.574Z,448.19
2022-10-18T01:51:42.576Z,448.20
2022-10-18T01:51:52.575Z,448.19
2022-10-18T01:52:02.613Z,448.17
2022-10-18T01:52:12.563Z,448.17
2022-10-18T01:52:22.566Z,448.17
2022-10-18T01:52:32.910Z,448.14
2022-10-18T01:52:42.579Z,448.14
2022-10-18T01:52:52.584Z,448.13
2022-10-18T01:53:02.586Z,448.05
2022-10-18T01:53:12.584Z,448.07
2022-10-18T01:53:22.588Z,448.04
2022-10-18T01:53:32.571Z,448.14
2022-10-18T01:53:42.586Z,448.15
2022-10-18T01:53:52.586Z,448.14
2022-10-18T01:54:02.589Z,448.14
2022-10-18T01:54:12.573Z,448.14
2022-10-18T01:54:22.595Z,448.15
2022-10-18T01:54:32.590Z,448.17
2022-10-18T01:54:42.592Z,448.13
2022-10-18T01:54:52.592Z,448.13
2022-10-18T01:55:02.594Z,448.13
2022-10-18T01:55:12.595Z,448.14
2022-10-18T01:55:22.581Z,448.12
2022-10-18T01:55:32.594Z,448.10
2022-10-18T01:55:42.580Z,448.11
2022-10-18T01:55:52.607Z,448.15
2022-10-18T01:56:02.598Z,448.15
2022-10-18T01:56:12.602Z,448.18
2022-10-18T01:56:22.588Z,448.24
2022-10-18T01:56:32.600Z,448.24
2022-10-18T01:56:42.602Z,448.21
2022-10-18T01:56:52.603Z,448.22
2022-10-18T01:57:02.604Z,448.22
2022-10-18T01:57:12.605Z,448.24
2022-10-18T01:57:22.588Z,448.23
2022-10-18T01:57:32.591Z,448.24
2022-10-18T01:57:42.606Z,448.28
2022-10-18T01:57:52.607Z,448.28
2022-10-18T01:58:02.608Z,448.28
2022-10-18T01:58:12.598Z,448.24
2022-10-18T01:58:22.610Z,448.25
2022-10-18T01:58:32.595Z,448.25
2022-10-18T01:58:42.610Z,448.25
2022-10-18T01:58:52.614Z,448.22
2022-10-18T01:59:02.615Z,448.21
2022-10-18T01:59:12.619Z,448.20
2022-10-18T01:59:22.615Z,448.21
2022-10-18T01:59:32.624Z,448.16
2022-10-18T01:59:42.617Z,448.15
2022-10-18T01:59:52.603Z,448.13
2022-10-18T02:00:02.603Z,448.16
2022-10-18T02:00:12.641Z,448.20
2022-10-18T02:00:22.619Z,448.15
2022-10-18T02:00:32.620Z,448.13
2022-10-18T02:00:42.623Z,448.14
2022-10-18T02:00:52.621Z,448.15
2022-10-18T02:01:02.656Z,448.16
2022-10-18T02:01:12.625Z,448.23
2022-10-18T02:01:22.611Z,448.23
2022-10-18T02:01:32.612Z,448.19
2022-10-18T02:01:42.631Z,448.17
2022-10-18T02:01:52.632Z,448.16
2022-10-18T02:02:02.629Z,448.19
2022-10-18T02:02:12.627Z,448.18
2022-10-18T02:02:22.629Z,448.19
2022-10-18T02:02:33.018Z,448.17
2022-10-18T02:02:42.631Z,448.16
2022-10-18T02:02:52.635Z,448.19
2022-10-18T02:03:02.632Z,448.20
2022-10-18T02:03:12.620Z,448.19
2022-10-18T02:03:22.622Z,448.17
2022-10-18T02:03:32.622Z,448.18
2022-10-18T02:03:42.637Z,448.16
2022-10-18T02:03:52.637Z,448.19
2022-10-18T02:04:02.625Z,448.19
2022-10-18T02:04:12.632Z,448.21
2022-10-18T02:04:22.644Z,448.22
2022-10-18T02:04:32.627Z,448.21
2022-10-18T02:04:42.626Z,448.19
2022-10-18T02:04:52.645Z,448.18
2022-10-18T02:05:02.643Z,448.17
2022-10-18T02:05:12.679Z,448.17
2022-10-18T02:05:22.653Z,448.15